Iblea — IBFK — position and weather

sailwx.info

Track history (hours):
 
Tides and Currents Weather Stations Pressure Air Temp Water Temp Dewpoint Dewpoint Depression Visibility Wind Speed Wind Dir Waves Ship Positions

Iblea

Last reported at 2017-Mar-26 17:33 UTC. Time now 2017-Mar-30 08:59 UTC.
Position N 33°09' E 034°28'.

Length 176 m; draft 7.3 m.

Type: Tanker. MMSI: 247087700.

Date/timePositionNaut miles runAvg speedWind from/ knotsBaromVisibWave heightAir tempDewpointWater temp
2017-Mar-26 17:33N 33°09' E 034°28'1111.3
2017-Mar-26 16:33N 33°15' E 034°16'1111.4
2017-Mar-26 15:33N 33°22' E 034°05'1511.7
2017-Mar-26 14:15N 33°30' E 033°49'911.7
2017-Mar-26 13:29N 33°35' E 033°41'13 2.5
2017-Mar-26 08:18N 33°42' E 033°28'1 0.6
2017-Mar-26 06:06N 33°43' E 033°27'1 0.8
2017-Mar-26 04:33N 33°44' E 033°26'1 1.1
2017-Mar-26 03:27N 33°45' E 033°25'2 1.3
2017-Mar-26 02:18N 33°46' E 033°24'1 1.4
2017-Mar-26 01:33N 33°47' E 033°23'2 1.5
2017-Mar-26 00:18N 33°48' E 033°21'1 1.5
2017-Mar-25 23:33N 33°49' E 033°20'2 1.5
2017-Mar-25 22:30N 33°50' E 033°18'2 1.0
2017-Mar-25 20:33N 33°51' E 033°16'9 8.5
2017-Mar-25 19:33N 33°46' E 033°25'1 1.5
2017-Mar-25 18:33N 33°47' E 033°24'1 1.4
2017-Mar-25 17:31N 33°48' E 033°23'2 1.4
2017-Mar-25 16:24N 33°49' E 033°22'1 1.4
2017-Mar-25 15:33N 33°50' E 033°21'1 1.4
2017-Mar-25 14:30N 33°51' E 033°20'2 1.6
2017-Mar-25 13:33N 33°52' E 033°18'1 1.3
2017-Mar-25 12:33N 33°53' E 033°17'1 0.9
2017-Mar-25 11:33N 33°53' E 033°16'1 0.8
2017-Mar-25 10:33N 33°54' E 033°15'1 0.6
2017-Mar-25 09:33N 33°54' E 033°15'1 0.8
2017-Mar-25 08:33N 33°55' E 033°14'1 0.8
2017-Mar-25 07:33N 33°55' E 033°13'1 0.9
2017-Mar-25 06:33N 33°56' E 033°12'1 1.3
2017-Mar-25 05:33N 33°56' E 033°11'2 1.6
2017-Mar-25 04:33N 33°57' E 033°10'2 1.6
2017-Mar-25 03:33N 33°58' E 033°08'5 5.3
2017-Mar-25 02:33N 34°03' E 033°09'8 8.5
2017-Mar-25 01:33N 34°12' E 033°10'9 7.9
2017-Mar-25 00:29N 34°20' E 033°12'7 7.5
2017-Mar-24 23:33N 34°27' E 033°15'4 3.6
2017-Mar-24 22:33N 34°30' E 033°15'1 0.7
2017-Mar-24 21:33N 34°30' E 033°16'1 1.0
2017-Mar-24 20:33N 34°31' E 033°17'2 2.1
2017-Mar-24 19:31N 34°32' E 033°19'1 1.6
2017-Mar-24 18:33N 34°33' E 033°20'0 0.3
2017-Mar-24 17:33N 34°33' E 033°20'0 0.3
2017-Mar-24 16:33N 34°33' E 033°20'0 0.5
2017-Mar-24 15:33N 34°32' E 033°20'1 1.0
2017-Mar-24 14:33N 34°32' E 033°20'4 3.6
2017-Mar-24 13:33N 34°32' E 033°25'10 2.3
2017-Mar-24 09:11N 34°34' E 033°37'1 0.8
2017-Mar-24 07:33N 34°35' E 033°37'1 0.8
2017-Mar-24 06:32N 34°36' E 033°36'1 0.6
2017-Mar-24 05:33N 34°37' E 033°36'0 0.5
2017-Mar-24 04:33N 34°37' E 033°36'0 0.2
2017-Mar-24 03:33N 34°37' E 033°37'4 4.0
2017-Mar-24 02:33N 34°36' E 033°32'6 5.6
2017-Mar-24 01:33N 34°34' E 033°25'6 6.5
2017-Mar-24 00:33N 34°32' E 033°18'1 0.5
2017-Mar-23 23:33N 34°32' E 033°18'1 1.4
2017-Mar-23 22:33N 34°32' E 033°19'5 5.1
2017-Mar-23 21:32N 34°34' E 033°25'0 0.1
2017-Mar-23 20:33N 34°34' E 033°25'0 0.1
2017-Mar-23 18:33N 34°34' E 033°25'0 0.4
2017-Mar-23 17:27N 34°33' E 033°26'0 0.5
2017-Mar-23 16:32N 34°33' E 033°26'1 0.6
2017-Mar-23 15:16N 34°33' E 033°27'5 1.4
2017-Mar-23 11:32N 34°28' E 033°28'1 1.1
2017-Mar-23 10:31N 34°29' E 033°29'7 0.8
2017-Mar-23 02:24N 34°34' E 033°34'2 0.3
2017-Mar-22 19:22N 34°35' E 033°36'0 0.2
2017-Mar-22 18:33N 34°35' E 033°36'1 0.3
2017-Mar-22 16:13N 34°35' E 033°37'7 0.4
2017-Mar-21 22:17N 34°33' E 033°45'2 0.9
2017-Mar-21 20:33N 34°33' E 033°43'  
Track history (hours):
 
Tides and Currents Weather Stations Pressure Air Temp Water Temp Dewpoint Dewpoint Depression Visibility Wind Speed Wind Dir Waves Ship Positions

Iblea

Last reported at 2017-Mar-26 17:33 UTC. Time now 2017-Mar-30 08:59 UTC.
Position N 33°09' E 034°28'.

Length 176 m; draft 7.3 m.

Type: Tanker. MMSI: 247087700.

Date/timePositionNaut miles runAvg speedWind from/ knotsBaromVisibWave heightAir tempDewpointWater temp
2017-Mar-26 17:33N 33°09' E 034°28'1111.3
2017-Mar-26 16:33N 33°15' E 034°16'1111.4
2017-Mar-26 15:33N 33°22' E 034°05'1511.7
2017-Mar-26 14:15N 33°30' E 033°49'911.7
2017-Mar-26 13:29N 33°35' E 033°41'13 2.5
2017-Mar-26 08:18N 33°42' E 033°28'1 0.6
2017-Mar-26 06:06N 33°43' E 033°27'1 0.8
2017-Mar-26 04:33N 33°44' E 033°26'1 1.1
2017-Mar-26 03:27N 33°45' E 033°25'2 1.3
2017-Mar-26 02:18N 33°46' E 033°24'1 1.4
2017-Mar-26 01:33N 33°47' E 033°23'2 1.5
2017-Mar-26 00:18N 33°48' E 033°21'1 1.5
2017-Mar-25 23:33N 33°49' E 033°20'2 1.5
2017-Mar-25 22:30N 33°50' E 033°18'2 1.0
2017-Mar-25 20:33N 33°51' E 033°16'9 8.5
2017-Mar-25 19:33N 33°46' E 033°25'1 1.5
2017-Mar-25 18:33N 33°47' E 033°24'1 1.4
2017-Mar-25 17:31N 33°48' E 033°23'2 1.4
2017-Mar-25 16:24N 33°49' E 033°22'1 1.4
2017-Mar-25 15:33N 33°50' E 033°21'1 1.4
2017-Mar-25 14:30N 33°51' E 033°20'2 1.6
2017-Mar-25 13:33N 33°52' E 033°18'1 1.3
2017-Mar-25 12:33N 33°53' E 033°17'1 0.9
2017-Mar-25 11:33N 33°53' E 033°16'1 0.8
2017-Mar-25 10:33N 33°54' E 033°15'1 0.6
2017-Mar-25 09:33N 33°54' E 033°15'1 0.8
2017-Mar-25 08:33N 33°55' E 033°14'1 0.8
2017-Mar-25 07:33N 33°55' E 033°13'1 0.9
2017-Mar-25 06:33N 33°56' E 033°12'1 1.3
2017-Mar-25 05:33N 33°56' E 033°11'2 1.6
2017-Mar-25 04:33N 33°57' E 033°10'2 1.6
2017-Mar-25 03:33N 33°58' E 033°08'5 5.3
2017-Mar-25 02:33N 34°03' E 033°09'8 8.5
2017-Mar-25 01:33N 34°12' E 033°10'9 7.9
2017-Mar-25 00:29N 34°20' E 033°12'7 7.5
2017-Mar-24 23:33N 34°27' E 033°15'4 3.6
2017-Mar-24 22:33N 34°30' E 033°15'1 0.7
2017-Mar-24 21:33N 34°30' E 033°16'1 1.0
2017-Mar-24 20:33N 34°31' E 033°17'2 2.1
2017-Mar-24 19:31N 34°32' E 033°19'1 1.6
2017-Mar-24 18:33N 34°33' E 033°20'0 0.3
2017-Mar-24 17:33N 34°33' E 033°20'0 0.3
2017-Mar-24 16:33N 34°33' E 033°20'0 0.5
2017-Mar-24 15:33N 34°32' E 033°20'1 1.0
2017-Mar-24 14:33N 34°32' E 033°20'4 3.6
2017-Mar-24 13:33N 34°32' E 033°25'10 2.3
2017-Mar-24 09:11N 34°34' E 033°37'1 0.8
2017-Mar-24 07:33N 34°35' E 033°37'1 0.8
2017-Mar-24 06:32N 34°36' E 033°36'1 0.6
2017-Mar-24 05:33N 34°37' E 033°36'0 0.5
2017-Mar-24 04:33N 34°37' E 033°36'0 0.2
2017-Mar-24 03:33N 34°37' E 033°37'4 4.0
2017-Mar-24 02:33N 34°36' E 033°32'6 5.6
2017-Mar-24 01:33N 34°34' E 033°25'6 6.5
2017-Mar-24 00:33N 34°32' E 033°18'1 0.5
2017-Mar-23 23:33N 34°32' E 033°18'1 1.4
2017-Mar-23 22:33N 34°32' E 033°19'5 5.1
2017-Mar-23 21:32N 34°34' E 033°25'0 0.1
2017-Mar-23 20:33N 34°34' E 033°25'0 0.1
2017-Mar-23 18:33N 34°34' E 033°25'0 0.4
2017-Mar-23 17:27N 34°33' E 033°26'0 0.5
2017-Mar-23 16:32N 34°33' E 033°26'1 0.6
2017-Mar-23 15:16N 34°33' E 033°27'5 1.4
2017-Mar-23 11:32N 34°28' E 033°28'1 1.1
2017-Mar-23 10:31N 34°29' E 033°29'7 0.8
2017-Mar-23 02:24N 34°34' E 033°34'2 0.3
2017-Mar-22 19:22N 34°35' E 033°36'0 0.2
2017-Mar-22 18:33N 34°35' E 033°36'1 0.3
2017-Mar-22 16:13N 34°35' E 033°37'7 0.4
2017-Mar-21 22:17N 34°33' E 033°45'2 0.9
2017-Mar-21 20:33N 34°33' E 033°43'  

Dump ship's entire track history